createdAt,value
2019-02-17T10:27:30.713Z,280.00
2019-02-17T10:28:03.710Z,276.00
2019-02-17T10:29:03.641Z,288.00
2019-02-17T10:30:03.642Z,300.00
2019-02-17T10:31:03.608Z,300.00
2019-02-17T10:32:03.610Z,300.00
2019-02-17T10:33:03.642Z,296.00
2019-02-17T10:34:03.578Z,300.00
2019-02-17T10:35:03.566Z,300.00
2019-02-17T14:55:19.143Z,152.00
2019-02-17T14:56:19.259Z,148.00
2019-02-17T14:57:19.118Z,144.00
2019-02-17T14:58:19.097Z,140.00
2019-02-17T14:59:19.097Z,136.00
2019-02-17T15:00:19.095Z,132.00
2019-02-17T15:01:19.071Z,132.00
2019-02-17T15:02:19.055Z,124.00
2019-02-17T15:03:19.119Z,124.00
2019-02-17T15:04:19.058Z,120.00
2019-02-17T15:20:44.188Z,100.00
2019-02-17T15:21:17.113Z,96.00
2019-02-17T15:22:17.080Z,96.00
2019-02-17T15:23:16.921Z,96.00
2019-02-17T15:35:17.553Z,88.00
2019-02-17T15:35:50.417Z,88.00
2019-02-17T15:36:50.435Z,88.00
2019-02-17T15:37:50.397Z,88.00
2019-02-17T15:46:00.828Z,80.00
2019-02-17T15:46:33.795Z,80.00
2019-02-17T15:47:33.805Z,80.00
2019-02-17T15:48:33.792Z,80.00
2019-02-17T15:49:33.785Z,76.00
2019-02-17T15:50:33.791Z,76.00
2019-02-17T15:51:33.785Z,76.00
2019-02-17T15:52:33.887Z,76.00
2019-02-17T15:53:33.755Z,72.00
2019-02-17T16:38:30.253Z,20.00
2019-02-17T16:40:21.935Z,20.00
2019-02-17T16:40:30.178Z,16.00
2019-02-17T16:41:49.456Z,20.00
2019-02-17T16:42:44.015Z,16.00
2019-02-17T16:43:55.827Z,16.00
2019-02-17T16:53:39.874Z,8.00
2019-02-17T16:54:03.591Z,4.00
2019-02-17T16:55:03.583Z,4.00
2019-02-17T16:56:03.557Z,4.00
2019-02-17T16:57:03.548Z,4.00
2019-02-17T16:58:03.541Z,4.00
2019-02-17T16:59:03.546Z,0.00
2019-02-17T17:00:03.516Z,4.00
2019-02-17T17:01:03.507Z,4.00
2019-02-17T17:02:03.489Z,0.00
2019-02-17T17:03:03.491Z,0.00
2019-02-17T17:04:03.501Z,0.00
2019-02-17T17:45:08.388Z,0.00
2019-02-17T17:46:08.380Z,0.00
2019-02-17T17:47:08.329Z,0.00
2019-02-17T17:48:08.326Z,0.00
2019-02-17T17:49:08.306Z,0.00
2019-02-17T17:50:08.306Z,0.00
2019-02-17T17:51:08.282Z,0.00
2019-02-17T17:52:08.287Z,0.00
2019-02-17T17:53:08.261Z,0.00
2019-02-17T17:54:08.256Z,0.00
2019-02-17T17:55:08.240Z,0.00
2019-02-17T17:56:08.237Z,0.00
2019-02-17T17:57:08.247Z,0.00
2019-02-17T17:58:08.244Z,0.00
2019-02-17T17:59:08.198Z,0.00
2019-02-17T18:00:08.186Z,0.00
2019-02-17T18:01:08.178Z,0.00
2019-02-17T18:02:08.196Z,0.00
2019-02-17T18:03:08.160Z,0.00
2019-02-17T18:04:08.142Z,0.00
2019-02-17T18:05:09.432Z,0.00
2019-02-17T18:06:08.153Z,0.00
2019-02-17T18:07:08.117Z,0.00
2019-02-17T18:08:08.116Z,0.00
2019-02-17T18:09:08.085Z,0.00
2019-02-17T18:10:08.074Z,0.00
2019-02-17T18:11:08.087Z,0.00
2019-02-17T18:12:08.054Z,0.00
2019-02-17T18:13:08.105Z,0.00
2019-02-17T18:14:08.035Z,0.00
2019-02-17T19:10:07.734Z,0.00
2019-02-17T19:11:08.538Z,0.00
2019-02-17T19:15:36.452Z,0.00
2019-02-17T19:16:25.961Z,0.00
2019-02-17T19:17:25.947Z,0.00
2019-02-17T19:18:25.955Z,0.00
2019-02-17T19:19:25.921Z,0.00
2019-02-17T19:20:26.086Z,0.00
2019-02-17T19:21:27.361Z,0.00
2019-02-17T19:22:26.040Z,0.00
2019-02-17T19:23:26.054Z,0.00
2019-02-17T19:24:25.974Z,0.00
2019-02-17T19:25:25.916Z,0.00
2019-02-17T19:26:25.889Z,0.00
2019-02-17T19:27:25.869Z,0.00
2019-02-17T19:28:25.884Z,0.00
2019-02-17T19:29:25.842Z,0.00
2019-02-17T19:30:25.982Z,0.00
2019-02-17T19:31:25.800Z,0.00
2019-02-17T19:32:25.822Z,0.00
2019-02-17T19:33:25.800Z,0.00
2019-02-17T19:34:25.776Z,0.00
2019-02-17T19:35:25.838Z,0.00
2019-02-17T19:36:25.748Z,0.00
2019-02-17T19:37:25.737Z,0.00
2019-02-17T19:38:25.940Z,0.00
2019-02-17T19:39:25.759Z,0.00
2019-02-17T19:40:25.726Z,0.00
2019-02-17T19:41:26.451Z,0.00
2019-02-17T19:42:25.742Z,0.00
2019-02-17T19:43:25.661Z,0.00
2019-02-17T19:44:25.649Z,0.00
2019-02-17T19:45:25.669Z,0.00
2019-02-17T19:46:25.650Z,0.00
2019-02-17T19:47:25.628Z,0.00
2019-02-17T19:48:25.633Z,0.00
2019-02-17T19:49:25.590Z,0.00
2019-02-17T19:50:25.583Z,0.00
2019-02-17T19:51:25.597Z,0.00
2019-02-17T19:52:25.561Z,0.00
2019-02-17T19:53:25.602Z,0.00
2019-02-17T19:54:25.557Z,0.00
2019-02-17T19:55:25.569Z,0.00
2019-02-17T19:56:25.625Z,0.00
2019-02-17T19:57:25.606Z,0.00
2019-02-17T19:58:25.564Z,0.00
2019-02-17T19:59:25.495Z,0.00
2019-02-17T20:00:25.501Z,0.00
2019-02-17T20:01:25.567Z,0.00
2019-02-17T20:02:25.482Z,0.00
2019-02-17T20:03:25.587Z,0.00
2019-02-17T20:04:25.502Z,0.00
2019-02-17T20:05:25.435Z,0.00
2019-02-17T20:06:25.472Z,0.00
2019-02-17T20:07:25.493Z,0.00
2019-02-17T20:08:25.422Z,0.00
2019-02-17T20:09:25.411Z,0.00
2019-02-17T20:10:25.456Z,0.00
2019-02-17T20:11:25.373Z,0.00
2019-02-17T20:12:25.401Z,0.00
2019-02-17T20:13:25.383Z,0.00
2019-02-17T20:14:25.388Z,0.00
2019-02-17T20:15:25.404Z,0.00
2019-02-17T20:16:25.358Z,0.00
2019-02-17T20:17:25.324Z,0.00
2019-02-17T20:18:25.321Z,0.00
2019-02-17T20:19:25.803Z,0.00
2019-02-17T20:20:25.334Z,0.00
2019-02-17T20:21:25.323Z,0.00
2019-02-17T20:22:25.391Z,0.00
2019-02-17T20:23:25.325Z,0.00
2019-02-17T20:24:25.399Z,0.00
2019-02-17T20:25:25.264Z,0.00
2019-02-17T20:26:25.311Z,0.00
2019-02-17T20:27:25.368Z,0.00
2019-02-17T20:28:40.712Z,0.00
2019-02-17T20:29:26.188Z,0.00
2019-02-17T20:30:25.190Z,0.00
2019-02-17T20:31:25.147Z,0.00
2019-02-17T20:32:25.146Z,0.00
2019-02-17T20:33:25.114Z,0.00
2019-02-17T20:34:25.108Z,0.00
2019-02-17T20:35:25.129Z,0.00
2019-02-17T20:36:25.109Z,0.00
2019-02-17T20:37:25.458Z,0.00
2019-02-17T20:38:25.081Z,0.00
2019-02-17T20:39:25.054Z,0.00
2019-02-17T20:40:25.074Z,0.00
2019-02-17T20:41:25.022Z,0.00
2019-02-17T20:42:25.089Z,0.00
2019-02-17T20:43:25.010Z,0.00
2019-02-17T20:44:24.992Z,0.00
2019-02-17T20:45:24.979Z,0.00
2019-02-17T20:46:24.984Z,0.00
2019-02-17T20:47:25.007Z,0.00
2019-02-17T20:48:24.950Z,0.00
2019-02-17T20:49:24.951Z,0.00
2019-02-17T20:50:24.935Z,0.00
2019-02-17T20:51:25.046Z,0.00
2019-02-17T20:52:25.022Z,0.00
2019-02-17T20:53:24.935Z,0.00
2019-02-17T20:54:24.948Z,0.00
2019-02-17T20:55:24.974Z,0.00
2019-02-17T20:56:24.893Z,0.00
2019-02-17T20:57:24.936Z,0.00
2019-02-17T20:58:25.014Z,0.00
2019-02-17T20:59:24.904Z,0.00
2019-02-17T21:00:24.968Z,0.00
2019-02-17T21:01:25.013Z,0.00
2019-02-17T21:02:24.892Z,0.00
2019-02-17T21:03:24.888Z,0.00
2019-02-17T21:04:24.920Z,0.00
2019-02-17T21:05:24.774Z,0.00
2019-02-17T21:06:24.754Z,0.00
2019-02-17T21:07:24.775Z,0.00
2019-02-17T21:08:24.746Z,0.00
2019-02-17T21:09:24.795Z,0.00
2019-02-17T21:10:24.847Z,0.00
2019-02-17T21:11:24.698Z,0.00
2019-02-17T21:12:24.830Z,0.00
2019-02-17T21:13:24.897Z,0.00
2019-02-17T21:14:24.724Z,0.00
2019-02-17T21:15:24.657Z,0.00
2019-02-17T21:16:24.636Z,0.00
2019-02-17T21:17:24.663Z,0.00
2019-02-17T21:18:24.614Z,0.00
2019-02-17T21:19:24.603Z,0.00
2019-02-17T21:20:24.593Z,0.00
2019-02-17T21:21:24.578Z,0.00
2019-02-17T21:22:24.591Z,0.00
2019-02-17T21:23:24.564Z,0.00
2019-02-17T21:24:24.565Z,0.00
2019-02-17T21:25:24.537Z,0.00
2019-02-17T21:26:26.485Z,0.00
2019-02-17T21:27:24.561Z,0.00
2019-02-17T21:28:24.514Z,0.00
2019-02-17T21:29:24.497Z,0.00
2019-02-17T21:30:24.484Z,0.00
2019-02-17T21:31:24.477Z,0.00
2019-02-17T21:32:24.473Z,0.00
2019-02-17T21:33:24.483Z,0.00
2019-02-17T21:34:24.445Z,0.00
2019-02-17T21:35:24.430Z,0.00
2019-02-17T21:36:24.421Z,0.00
2019-02-17T21:37:24.408Z,0.00
2019-02-17T21:40:41.348Z,0.00
2019-02-17T21:41:51.453Z,0.00
2019-02-17T21:42:41.318Z,0.00
2019-02-17T21:43:41.283Z,0.00
2019-02-17T21:44:41.271Z,0.00
2019-02-17T21:45:41.261Z,0.00
2019-02-17T21:46:41.269Z,0.00
2019-02-17T21:47:41.280Z,0.00
2019-02-17T21:48:41.334Z,0.00
2019-02-17T21:49:41.256Z,0.00
2019-02-17T21:50:41.247Z,0.00
2019-02-17T21:51:41.241Z,0.00
2019-02-17T21:52:42.221Z,0.00
2019-02-17T21:53:41.278Z,0.00
2019-02-17T21:54:41.240Z,0.00
2019-02-17T21:55:41.191Z,0.00
2019-02-17T21:56:41.197Z,0.00
2019-02-17T21:57:41.172Z,0.00
2019-02-17T21:58:42.041Z,0.00
2019-02-17T21:59:41.151Z,0.00
2019-02-17T22:00:41.116Z,0.00
2019-02-17T22:01:41.087Z,0.00
2019-02-17T22:02:41.075Z,0.00
2019-02-17T22:03:41.099Z,0.00
2019-02-17T22:04:41.066Z,0.00
2019-02-17T22:05:41.053Z,0.00
2019-02-17T22:06:41.046Z,0.00
2019-02-17T22:07:41.034Z,0.00
2019-02-17T22:08:41.056Z,0.00
2019-02-17T22:09:41.021Z,0.00
2019-02-17T22:10:41.021Z,0.00
2019-02-17T22:11:40.994Z,0.00
2019-02-17T22:12:41.040Z,0.00
2019-02-17T22:13:41.020Z,0.00
2019-02-17T22:14:40.999Z,0.00
2019-02-17T22:15:40.987Z,0.00
2019-02-17T22:16:40.930Z,0.00
2019-02-17T22:17:40.950Z,0.00
2019-02-17T22:18:40.911Z,0.00
2019-02-17T22:19:40.966Z,0.00
2019-02-17T22:20:40.919Z,0.00
2019-02-17T22:21:40.899Z,0.00
2019-02-17T22:22:40.881Z,0.00
2019-02-17T22:23:40.859Z,0.00
2019-02-17T22:24:40.920Z,0.00
2019-02-17T22:25:40.851Z,0.00
2019-02-17T22:26:40.850Z,0.00
2019-02-17T22:27:40.816Z,0.00
2019-02-17T22:28:40.806Z,0.00
2019-02-17T22:29:40.788Z,0.00
2019-02-17T22:30:40.842Z,0.00
2019-02-17T22:31:40.772Z,0.00
2019-02-17T22:32:40.754Z,0.00
2019-02-17T22:33:40.752Z,0.00
2019-02-17T22:34:40.763Z,0.00
2019-02-17T22:35:40.777Z,0.00
2019-02-17T22:36:43.789Z,0.00
2019-02-17T22:37:40.715Z,0.00
2019-02-17T22:38:40.697Z,0.00
2019-02-17T22:39:40.692Z,0.00
2019-02-17T22:40:40.691Z,0.00
2019-02-17T22:41:40.654Z,0.00
2019-02-17T22:42:40.649Z,0.00
2019-02-17T22:43:40.647Z,0.00
2019-02-17T22:44:40.619Z,0.00
2019-02-17T22:45:40.659Z,0.00
2019-02-17T22:46:40.603Z,0.00
2019-02-17T22:47:40.601Z,0.00
2019-02-17T22:48:40.591Z,0.00
2019-02-17T22:49:40.590Z,0.00
2019-02-17T22:50:40.570Z,0.00
2019-02-17T22:51:40.578Z,0.00
2019-02-17T22:52:40.540Z,0.00
2019-02-17T22:53:43.749Z,0.00
2019-02-17T22:54:40.515Z,0.00
2019-02-17T22:55:40.513Z,0.00
2019-02-17T22:56:40.520Z,0.00
2019-02-17T22:57:40.501Z,0.00
2019-02-17T22:58:40.476Z,0.00
2019-02-17T22:59:40.462Z,0.00
2019-02-17T23:00:40.452Z,0.00
2019-02-17T23:01:40.464Z,0.00
2019-02-17T23:02:40.426Z,0.00
2019-02-17T23:03:40.410Z,0.00
2019-02-17T23:04:40.401Z,0.00
2019-02-17T23:05:40.401Z,0.00
2019-02-17T23:17:44.166Z,0.00
2019-02-17T23:18:17.133Z,0.00
